Flin Flon, Canada
Current Conditions -  °F | °C
As of 6:00 PM on Thursday 27 Nov 2014 (Local Time) from CYFO Reporting Station
Overcast Overcast  
Wind Chill: -23°   Ceiling: 1900
Heat Index: -17°   Visibility: 15mi
Dew Point: -20°   Wind: 6mph
Humidity: 78%   Direction: 350°N
Pressure: 30.18"   Gusts: NA
Location:  54.77°N, 101.88°W
Report Text: CYFO 280000Z 35005KT 15SM BKN019 OVC040 M17/M20 A3018 RMK SC6SC2 LAST OBS/NEXT 281200UTC SNW COV/MUCH LOOSE SLP257
Loading
Personal Weather Stations






























Interactive Weather Map New forecast layout! Learn more

10-Day Weather Forecast

Advertisements
Track Severe Weather on mobile